Terminal Aerodrome Forecast
Issued by NWS

Home | Current Version | Previous Version | Text Only | Print | Product List | Glossary On
Versions: 1 2 3 4 5 6 7 8 9 10 11 12 13 14
433
FTUS43 KJKL 272346
TAFSME
TAF
KSME 272346Z 2800/2824 24025G37KT 2SM +TSRA BKN025CB OVC050
     FM280030 VRB03KT 3SM RA VCTS BKN025CB OVC050
     FM280300 17006KT 6SM -SHRA BR VCTS SCT045CB BKN080
     FM280600 21006KT 3SM -SHRA BR SCT015 OVC025
     FM281200 VRB06KT P6SM -SHRA SCT003 OVC015
     FM281400 25005KT P6SM SCT008 BKN010
     FM281900 VRB04KT P6SM SCT025 BKN050=

USA.gov is the U.S. government's official web portal to all federal, state and local government web resources and services.